createdAt,value
2018-07-30T00:00:00.600Z,26.3
2018-07-30T00:01:01.463Z,26.3
2018-07-30T00:01:58.786Z,26.3
2018-07-30T00:02:58.821Z,26.3
2018-07-30T00:03:59.861Z,26.3
2018-07-30T00:04:57.945Z,26.3
2018-07-30T00:05:59.458Z,26.3
2018-07-30T00:06:54.143Z,26.3
2018-07-30T00:07:56.120Z,26.2
2018-07-30T00:08:56.115Z,26.2
2018-07-30T00:09:51.474Z,26.2
2018-07-30T00:10:54.127Z,26.2
2018-07-30T00:11:50.628Z,26.2
2018-07-30T00:13:00.124Z,26.2
2018-07-30T00:14:03.516Z,26.2
2018-07-30T00:15:01.695Z,26.1
2018-07-30T00:16:18.093Z,26.2
2018-07-30T00:17:10.697Z,26.1
2018-07-30T00:18:19.018Z,26.1
2018-07-30T00:19:23.276Z,26.1
2018-07-30T00:20:23.221Z,26.1
2018-07-30T00:21:23.890Z,26.1
2018-07-30T00:22:29.381Z,26.1
2018-07-30T00:23:29.716Z,26.1
2018-07-30T00:24:28.776Z,26.1
2018-07-30T00:25:33.048Z,26.1
2018-07-30T00:26:34.343Z,26.1
2018-07-30T00:27:33.809Z,26.1
2018-07-30T00:28:29.408Z,26.1
2018-07-30T00:29:31.126Z,26.1
2018-07-30T00:30:38.575Z,26
2018-07-30T00:31:36.248Z,26
2018-07-30T00:32:43.448Z,26
2018-07-30T00:33:46.257Z,26
2018-07-30T00:34:48.654Z,26
2018-07-30T00:36:07.222Z,26
2018-07-30T00:37:09.849Z,26
2018-07-30T00:38:18.657Z,26
2018-07-30T00:39:15.744Z,26
2018-07-30T00:40:23.322Z,26
2018-07-30T00:41:23.509Z,26
2018-07-30T00:42:27.681Z,25.9
2018-07-30T00:43:28.093Z,25.9
2018-07-30T00:44:24.700Z,26
2018-07-30T00:45:25.172Z,26
2018-07-30T00:46:23.777Z,26
2018-07-30T00:47:21.499Z,25.9
2018-07-30T00:48:21.545Z,26
2018-07-30T00:49:19.816Z,26
2018-07-30T00:50:21.680Z,25.9
2018-07-30T00:51:39.062Z,25.9
2018-07-30T00:52:35.932Z,26
2018-07-30T00:53:34.996Z,25.9
2018-07-30T00:54:32.503Z,26
2018-07-30T00:55:29.593Z,25.9
2018-07-30T00:56:39.387Z,26
2018-07-30T00:57:38.274Z,25.9
2018-07-30T00:58:38.663Z,26
2018-07-30T00:59:36.430Z,25.9
2018-07-30T01:00:30.723Z,26
2018-07-30T01:01:28.387Z,25.9
2018-07-30T01:02:40.405Z,25.9
2018-07-30T01:03:33.151Z,25.9
2018-07-30T01:04:32.574Z,25.9
2018-07-30T01:05:33.704Z,25.9
2018-07-30T01:06:31.607Z,25.9
2018-07-30T01:07:26.694Z,25.9
2018-07-30T01:08:25.852Z,25.9
2018-07-30T01:09:27.799Z,25.9
2018-07-30T01:10:28.807Z,25.9
2018-07-30T01:11:28.217Z,25.9
2018-07-30T01:12:33.951Z,25.9
2018-07-30T01:13:33.567Z,25.9
2018-07-30T01:14:28.303Z,25.9
2018-07-30T01:15:32.061Z,25.9
2018-07-30T01:16:39.840Z,25.9
2018-07-30T01:17:43.830Z,25.9
2018-07-30T01:18:41.786Z,25.9
2018-07-30T01:20:00.286Z,25.9
2018-07-30T01:20:51.831Z,25.9
2018-07-30T01:21:53.719Z,25.8
2018-07-30T01:22:57.096Z,25.8
2018-07-30T01:24:06.842Z,25.8
2018-07-30T01:25:02.380Z,25.9
2018-07-30T01:25:59.608Z,25.9
2018-07-30T01:27:06.845Z,25.8
2018-07-30T01:28:06.800Z,25.8
2018-07-30T01:29:05.156Z,25.8
2018-07-30T01:30:00.637Z,25.8
2018-07-30T01:31:03.360Z,25.8
2018-07-30T01:31:59.864Z,25.8
2018-07-30T01:33:11.650Z,25.8
2018-07-30T01:34:05.674Z,25.8
2018-07-30T01:35:04.628Z,25.8
2018-07-30T01:36:05.909Z,25.8
2018-07-30T01:37:00.652Z,25.8
2018-07-30T01:38:05.683Z,25.8
2018-07-30T01:39:06.574Z,25.8
2018-07-30T01:40:10.084Z,25.8
2018-07-30T01:41:05.117Z,25.8
2018-07-30T01:42:12.722Z,25.8
2018-07-30T01:43:08.093Z,25.8
2018-07-30T01:44:23.931Z,25.8
2018-07-30T01:45:22.769Z,25.8
2018-07-30T01:46:22.212Z,25.8
2018-07-30T01:47:22.184Z,25.8
2018-07-30T01:48:24.374Z,25.8
2018-07-30T01:49:24.170Z,25.8
2018-07-30T01:50:23.097Z,25.8
2018-07-30T01:51:26.208Z,25.8
2018-07-30T01:52:28.004Z,25.8
2018-07-30T01:53:29.653Z,25.7
2018-07-30T01:54:33.900Z,25.7
2018-07-30T01:55:33.703Z,25.7
2018-07-30T01:56:46.499Z,25.7
2018-07-30T01:57:41.587Z,25.7
2018-07-30T01:58:42.093Z,25.7
2018-07-30T01:59:41.487Z,25.7
2018-07-30T02:00:37.809Z,25.7
2018-07-30T02:01:53.083Z,25.7
2018-07-30T02:02:54.230Z,25.7
2018-07-30T02:03:58.543Z,25.7
2018-07-30T02:04:59.618Z,25.7
2018-07-30T02:06:01.582Z,25.7
2018-07-30T02:06:59.884Z,25.6
2018-07-30T02:07:55.152Z,25.6
2018-07-30T02:08:55.023Z,25.6
2018-07-30T02:09:53.364Z,25.6
2018-07-30T02:11:07.722Z,25.6
2018-07-30T02:12:05.939Z,25.5
2018-07-30T02:13:04.831Z,25.5
2018-07-30T02:14:06.271Z,25.5
2018-07-30T02:15:06.295Z,25.5
2018-07-30T02:16:08.680Z,25.5
2018-07-30T02:17:04.250Z,25.5
2018-07-30T02:18:02.931Z,25.5
2018-07-30T02:19:04.195Z,25.5
2018-07-30T02:20:07.491Z,25.5
2018-07-30T02:21:11.675Z,25.5
2018-07-30T02:22:11.787Z,25.5
2018-07-30T02:23:12.405Z,25.4
2018-07-30T02:24:10.219Z,25.5
2018-07-30T02:25:37.064Z,25.4
2018-07-30T02:26:39.289Z,25.4
2018-07-30T02:27:53.427Z,25.4
2018-07-30T02:28:57.081Z,25.4
2018-07-30T02:29:58.629Z,25.4
2018-07-30T02:31:07.605Z,25.4
2018-07-30T02:32:02.613Z,25.4
2018-07-30T02:33:03.841Z,25.3
2018-07-30T02:34:05.207Z,25.3
2018-07-30T02:35:01.347Z,25.3
2018-07-30T02:36:05.725Z,25.3
2018-07-30T02:37:03.883Z,25.3
2018-07-30T02:38:18.907Z,25.3
2018-07-30T02:39:14.608Z,25.3
2018-07-30T02:40:13.047Z,25.3
2018-07-30T02:41:12.184Z,25.3
2018-07-30T02:42:08.098Z,25.3
2018-07-30T02:43:09.460Z,25.3
2018-07-30T02:44:08.791Z,25.2
2018-07-30T02:45:10.289Z,25.3
2018-07-30T02:46:04.808Z,25.2
2018-07-30T02:47:06.438Z,25.2
2018-07-30T02:48:06.730Z,25.2
2018-07-30T02:49:05.541Z,25.2
2018-07-30T02:50:05.751Z,25.2
2018-07-30T02:51:04.355Z,25.2
2018-07-30T02:51:59.989Z,25.1
2018-07-30T02:53:07.759Z,25.1
2018-07-30T02:54:11.439Z,25.1
2018-07-30T02:55:09.414Z,25.2
2018-07-30T02:56:07.032Z,25.1
2018-07-30T02:57:11.126Z,25.1
2018-07-30T02:58:11.284Z,25.1
2018-07-30T02:59:08.784Z,25.1
2018-07-30T03:00:10.924Z,25.1
2018-07-30T03:01:21.576Z,25.1
2018-07-30T03:02:21.726Z,25.1
2018-07-30T03:03:16.439Z,25.1
2018-07-30T03:04:17.325Z,25.1
2018-07-30T03:05:15.544Z,25.1
2018-07-30T03:06:13.722Z,25.1
2018-07-30T03:07:12.842Z,25.1
2018-07-30T03:08:17.722Z,25.1
2018-07-30T03:09:21.604Z,25.1
2018-07-30T03:10:19.367Z,25.1
2018-07-30T03:11:13.764Z,25.1
2018-07-30T03:12:12.512Z,25.1
2018-07-30T03:13:26.449Z,25.1
2018-07-30T03:14:28.807Z,25
2018-07-30T03:15:30.185Z,25
2018-07-30T03:16:31.608Z,25
2018-07-30T03:17:31.785Z,25
2018-07-30T03:18:36.623Z,25
2018-07-30T03:19:35.084Z,25
2018-07-30T03:20:34.389Z,25
2018-07-30T03:21:48.318Z,25
2018-07-30T03:22:50.463Z,25
2018-07-30T03:23:49.739Z,24.9
2018-07-30T03:24:53.890Z,24.9
2018-07-30T03:25:52.851Z,25
2018-07-30T03:26:53.880Z,24.9
2018-07-30T03:28:06.198Z,24.9
2018-07-30T03:29:05.128Z,25
2018-07-30T03:30:06.456Z,25
2018-07-30T03:31:04.864Z,25
2018-07-30T03:32:08.278Z,25
2018-07-30T03:33:10.466Z,25
2018-07-30T03:34:08.268Z,25
2018-07-30T03:35:04.414Z,25
2018-07-30T03:36:04.225Z,25
2018-07-30T03:37:05.639Z,25
2018-07-30T03:38:10.385Z,25
2018-07-30T03:39:06.857Z,25
2018-07-30T03:40:03.074Z,25
2018-07-30T03:41:15.142Z,25
2018-07-30T03:42:13.107Z,25
2018-07-30T03:43:11.304Z,25.1
2018-07-30T03:44:10.357Z,25.1
2018-07-30T03:45:22.787Z,25.1
2018-07-30T03:46:20.313Z,25.1
2018-07-30T03:47:19.144Z,25.1
2018-07-30T03:48:29.065Z,25.2
2018-07-30T03:49:33.495Z,25.2
2018-07-30T03:50:34.207Z,25.1
2018-07-30T03:51:44.901Z,25.2
2018-07-30T03:52:40.161Z,25.2
2018-07-30T03:53:42.514Z,25.3
2018-07-30T03:54:40.139Z,25.2
2018-07-30T03:55:40.897Z,25.3
2018-07-30T03:56:43.174Z,25.3
2018-07-30T03:57:41.080Z,25.3
2018-07-30T03:58:50.467Z,25.3
2018-07-30T03:59:50.247Z,25.3
2018-07-30T04:00:47.772Z,25.3
2018-07-30T04:01:51.510Z,25.3
2018-07-30T04:02:50.122Z,25.3
2018-07-30T04:03:46.303Z,25.3
2018-07-30T04:04:49.185Z,25.3
2018-07-30T04:06:01.013Z,25.3
2018-07-30T04:06:56.605Z,25.4
2018-07-30T04:08:01.172Z,25.4
2018-07-30T04:08:57.526Z,25.3
2018-07-30T04:10:00.775Z,25.4
2018-07-30T04:10:58.737Z,25.4
2018-07-30T04:11:57.258Z,25.4
2018-07-30T04:12:59.915Z,25.4
2018-07-30T04:13:58.219Z,25.4
2018-07-30T04:15:00.956Z,25.4
2018-07-30T04:16:01.238Z,25.4
2018-07-30T04:17:02.793Z,25.4
2018-07-30T04:18:17.149Z,25.4
2018-07-30T04:19:12.243Z,25.4
2018-07-30T04:20:14.362Z,25.5
2018-07-30T04:21:10.002Z,25.5
2018-07-30T04:22:13.292Z,25.5
2018-07-30T04:23:11.902Z,25.5
2018-07-30T04:24:16.166Z,25.4
2018-07-30T04:25:18.213Z,25.5
2018-07-30T04:26:18.171Z,25.5
2018-07-30T04:27:16.210Z,25.5
2018-07-30T04:28:13.997Z,25.5
2018-07-30T04:29:19.090Z,25.4
2018-07-30T04:30:17.077Z,25.5
2018-07-30T04:31:16.539Z,25.5
2018-07-30T04:32:29.108Z,25.5
2018-07-30T04:33:23.533Z,25.5
2018-07-30T04:34:21.342Z,25.4
2018-07-30T04:35:21.263Z,25.5
2018-07-30T04:36:19.282Z,25.5
2018-07-30T04:37:19.178Z,25.5
2018-07-30T04:38:20.206Z,25.5
2018-07-30T04:39:22.266Z,25.4
2018-07-30T04:40:21.364Z,25.4
2018-07-30T04:41:20.099Z,25.4
2018-07-30T04:42:18.970Z,25.4
2018-07-30T04:43:15.278Z,25.4
2018-07-30T04:44:23.920Z,25.4
2018-07-30T04:45:23.691Z,25.4
2018-07-30T04:46:20.217Z,25.4
2018-07-30T04:47:22.901Z,25.4
2018-07-30T04:48:43.857Z,25.4
2018-07-30T04:49:41.965Z,25.4
2018-07-30T04:50:40.301Z,25.4
2018-07-30T04:51:44.241Z,25.4
2018-07-30T04:52:42.498Z,25.4
2018-07-30T04:53:44.349Z,25.5
2018-07-30T04:54:43.401Z,25.4
2018-07-30T04:55:49.007Z,25.5
2018-07-30T04:56:46.331Z,25.5
2018-07-30T04:57:48.721Z,25.4
2018-07-30T04:58:47.191Z,25.5
2018-07-30T04:59:50.423Z,25.5
2018-07-30T05:01:02.474Z,25.4
2018-07-30T05:01:58.755Z,25.4
2018-07-30T05:03:01.455Z,25.4
2018-07-30T05:04:05.358Z,25.4
2018-07-30T05:05:07.561Z,25.4
2018-07-30T05:06:07.433Z,25.4
2018-07-30T05:07:09.428Z,25.4
2018-07-30T05:08:11.193Z,25.4
2018-07-30T05:09:15.260Z,25.4
2018-07-30T05:10:13.306Z,25.4
2018-07-30T05:11:08.169Z,25.4
2018-07-30T05:12:20.127Z,25.4
2018-07-30T05:13:16.517Z,25.4
2018-07-30T05:14:17.508Z,25.4
2018-07-30T05:15:15.103Z,25.4
2018-07-30T05:16:15.333Z,25.4
2018-07-30T05:17:11.489Z,25.4
2018-07-30T05:18:12.180Z,25.4
2018-07-30T05:19:11.143Z,25.4
2018-07-30T05:20:12.467Z,25.4
2018-07-30T05:21:10.063Z,25.4
2018-07-30T05:22:15.262Z,25.4
2018-07-30T05:23:17.695Z,25.4
2018-07-30T05:24:19.298Z,25.5
2018-07-30T05:25:24.187Z,25.5
2018-07-30T05:26:33.143Z,25.5
2018-07-30T05:27:33.559Z,25.5
2018-07-30T05:28:29.796Z,25.5
2018-07-30T05:29:27.696Z,25.5
2018-07-30T05:30:25.896Z,25.5
2018-07-30T05:31:30.222Z,25.6
2018-07-30T05:32:25.685Z,25.6
2018-07-30T05:33:23.173Z,25.6
2018-07-30T05:34:22.340Z,25.6
2018-07-30T05:35:25.736Z,25.6
2018-07-30T05:36:31.656Z,25.6
2018-07-30T05:37:30.520Z,25.7
2018-07-30T05:38:25.095Z,25.6
2018-07-30T05:39:26.740Z,25.7
2018-07-30T05:40:42.454Z,25.7
2018-07-30T05:41:41.192Z,25.7
2018-07-30T05:42:42.736Z,25.8
2018-07-30T05:43:44.492Z,25.8
2018-07-30T05:44:49.076Z,25.8
2018-07-30T05:45:48.220Z,25.8
2018-07-30T05:46:51.192Z,25.8
2018-07-30T05:47:49.439Z,25.8
2018-07-30T05:48:45.927Z,25.8
2018-07-30T05:49:48.091Z,25.9
2018-07-30T05:50:49.923Z,25.8
2018-07-30T05:51:48.796Z,25.9
2018-07-30T05:52:53.329Z,25.9
2018-07-30T05:53:52.623Z,25.9
2018-07-30T05:55:04.260Z,25.9
2018-07-30T05:56:08.282Z,25.9
2018-07-30T05:57:07.339Z,26
2018-07-30T05:58:05.427Z,26
2018-07-30T05:59:03.210Z,26
2018-07-30T05:59:59.399Z,26
2018-07-30T06:01:06.770Z,26
2018-07-30T06:02:02.459Z,26
2018-07-30T06:03:01.324Z,26.1
2018-07-30T06:04:02.328Z,26.1
2018-07-30T06:05:13.947Z,26.1
2018-07-30T06:06:19.926Z,26.1
2018-07-30T06:07:19.642Z,26.2
2018-07-30T06:08:25.821Z,26.2
2018-07-30T06:09:23.791Z,26.2
2018-07-30T06:10:22.695Z,26.2
2018-07-30T06:11:23.859Z,26.3
2018-07-30T06:12:21.678Z,26.3
2018-07-30T06:13:32.921Z,26.3
2018-07-30T06:14:33.319Z,26.3
2018-07-30T06:15:32.660Z,26.4
2018-07-30T06:16:27.233Z,26.3
2018-07-30T06:17:31.043Z,26.4
2018-07-30T06:18:26.689Z,26.4
2018-07-30T06:19:40.295Z,26.4
2018-07-30T06:20:35.365Z,26.4
2018-07-30T06:21:33.896Z,26.5
2018-07-30T06:22:36.061Z,26.5
2018-07-30T06:23:31.633Z,26.5
2018-07-30T06:24:32.538Z,26.5
2018-07-30T06:25:33.483Z,26.5
2018-07-30T06:26:47.902Z,26.6
2018-07-30T06:27:47.635Z,26.5
2018-07-30T06:28:42.179Z,26.6
2018-07-30T06:29:54.252Z,26.6
2018-07-30T06:30:48.666Z,26.6
2018-07-30T06:31:51.176Z,26.6
2018-07-30T06:32:47.422Z,26.6
2018-07-30T06:33:52.261Z,26.6
2018-07-30T06:34:45.763Z,26.6
2018-07-30T06:35:47.373Z,26.7
2018-07-30T06:36:48.675Z,26.7
2018-07-30T06:37:52.150Z,26.7
2018-07-30T06:38:50.148Z,26.7
2018-07-30T06:39:58.561Z,26.7
2018-07-30T06:41:19.578Z,26.7
2018-07-30T06:42:15.327Z,26.7
2018-07-30T06:43:19.951Z,26.7
2018-07-30T06:44:22.011Z,26.7
2018-07-30T06:45:16.301Z,26.8
2018-07-30T06:46:13.925Z,26.7
2018-07-30T06:47:15.092Z,26.8
2018-07-30T06:48:10.613Z,26.8
2018-07-30T06:49:17.304Z,26.8
2018-07-30T06:50:16.214Z,26.8
2018-07-30T06:51:16.801Z,26.8
2018-07-30T06:52:14.149Z,26.8
2018-07-30T06:53:14.621Z,26.8
2018-07-30T06:54:27.357Z,26.9
2018-07-30T06:55:21.900Z,26.9
2018-07-30T06:56:22.651Z,26.9
2018-07-30T06:57:26.360Z,26.9
2018-07-30T06:58:24.205Z,26.9
2018-07-30T06:59:24.382Z,26.9
2018-07-30T07:00:33.513Z,26.9
2018-07-30T07:01:37.529Z,26.9
2018-07-30T07:02:39.619Z,26.9
2018-07-30T07:03:37.617Z,26.9
2018-07-30T07:04:50.897Z,26.9
2018-07-30T07:05:46.650Z,26.9
2018-07-30T07:06:54.565Z,26.9
2018-07-30T07:07:50.540Z,27
2018-07-30T07:08:54.589Z,27
2018-07-30T07:10:00.966Z,27
2018-07-30T07:10:58.995Z,27
2018-07-30T07:11:54.301Z,27
2018-07-30T07:12:58.404Z,27
2018-07-30T07:13:57.230Z,27
2018-07-30T07:14:58.884Z,27
2018-07-30T07:15:57.568Z,27
2018-07-30T07:16:54.166Z,27
2018-07-30T07:18:06.470Z,27
2018-07-30T07:19:06.034Z,27
2018-07-30T07:20:09.344Z,27
2018-07-30T07:21:03.925Z,27
2018-07-30T07:22:01.761Z,27
2018-07-30T07:23:04.026Z,27
2018-07-30T07:24:11.982Z,27
2018-07-30T07:25:10.025Z,27
2018-07-30T07:26:10.170Z,27.1
2018-07-30T07:27:09.439Z,27
2018-07-30T07:28:23.695Z,27
2018-07-30T07:29:21.886Z,27.1
2018-07-30T07:30:20.606Z,27.1
2018-07-30T07:31:20.584Z,27.1
2018-07-30T07:32:34.755Z,27.1
2018-07-30T07:33:32.459Z,27.1
2018-07-30T07:34:32.028Z,27.1
2018-07-30T07:35:32.423Z,27.1
2018-07-30T07:36:30.928Z,27.2
2018-07-30T07:37:29.498Z,27.1
2018-07-30T07:38:29.732Z,27.1
2018-07-30T07:39:36.090Z,27.2
2018-07-30T07:40:33.598Z,27.2
2018-07-30T07:41:34.171Z,27.2
2018-07-30T07:42:28.563Z,27.2
2018-07-30T07:43:44.067Z,27.2
2018-07-30T07:44:38.724Z,27.2
2018-07-30T07:45:39.886Z,27.2
2018-07-30T07:46:41.030Z,27.2
2018-07-30T07:47:38.899Z,27.3
2018-07-30T07:48:36.729Z,27.2
2018-07-30T07:49:34.921Z,27.3
2018-07-30T07:50:35.543Z,27.3
2018-07-30T07:51:30.988Z,27.3
2018-07-30T07:52:32.931Z,27.3
2018-07-30T07:53:33.192Z,27.3
2018-07-30T07:54:33.825Z,27.4
2018-07-30T07:55:33.010Z,27.4
2018-07-30T07:56:30.982Z,27.4
2018-07-30T07:57:42.992Z,27.4
2018-07-30T07:58:35.514Z,27.4
2018-07-30T07:59:38.119Z,27.4
2018-07-30T08:00:36.897Z,27.4
2018-07-30T08:01:36.523Z,27.4
2018-07-30T08:02:34.664Z,27.4
2018-07-30T08:03:34.230Z,27.4
2018-07-30T08:04:37.550Z,27.4
2018-07-30T08:05:35.257Z,27.4
2018-07-30T08:06:30.607Z,27.5
2018-07-30T08:07:51.750Z,27.5
2018-07-30T08:08:38.422Z,27.5
2018-07-30T08:09:40.187Z,27.5
2018-07-30T08:10:42.363Z,27.5
2018-07-30T08:11:40.621Z,27.5
2018-07-30T08:12:38.518Z,27.5
2018-07-30T08:13:39.561Z,27.5
2018-07-30T08:14:00.541Z,27.5
2018-07-30T08:15:07.468Z,27.5
2018-07-30T08:16:09.719Z,27.5
2018-07-30T08:17:07.690Z,27.5
2018-07-30T08:18:06.057Z,27.6
2018-07-30T08:19:04.040Z,27.6
2018-07-30T08:20:02.096Z,27.5
2018-07-30T08:21:01.225Z,27.6
2018-07-30T08:22:23.281Z,27.6
2018-07-30T08:23:21.042Z,27.6
2018-07-30T08:24:19.401Z,27.6
2018-07-30T08:25:17.541Z,27.6
2018-07-30T08:26:21.984Z,27.6
2018-07-30T08:27:24.701Z,27.7
2018-07-30T08:28:23.891Z,27.6
2018-07-30T08:29:25.153Z,27.7
2018-07-30T08:30:22.740Z,27.7
2018-07-30T08:31:31.940Z,27.7
2018-07-30T08:32:29.843Z,27.7
2018-07-30T08:33:29.138Z,27.7
2018-07-30T08:34:28.871Z,27.7
2018-07-30T08:35:27.142Z,27.7
2018-07-30T08:36:31.562Z,27.7
2018-07-30T08:37:29.555Z,27.7
2018-07-30T08:38:26.220Z,27.7
2018-07-30T08:39:37.261Z,27.7
2018-07-30T08:40:36.157Z,27.8
2018-07-30T08:41:30.952Z,27.8
2018-07-30T08:42:29.704Z,27.8
2018-07-30T08:43:30.634Z,27.8
2018-07-30T08:44:25.476Z,27.8
2018-07-30T08:45:27.643Z,27.8
2018-07-30T08:46:32.969Z,27.8
2018-07-30T08:47:32.487Z,27.8
2018-07-30T08:48:28.381Z,27.8
2018-07-30T08:49:40.375Z,27.9
2018-07-30T08:50:35.715Z,27.9
2018-07-30T08:51:30.645Z,27.9
2018-07-30T08:52:29.737Z,27.9
2018-07-30T08:53:39.296Z,27.9
2018-07-30T08:54:34.977Z,27.9
2018-07-30T08:55:44.184Z,27.9
2018-07-30T08:56:48.756Z,27.9
2018-07-30T08:57:56.657Z,27.9
2018-07-30T08:58:51.889Z,27.9
2018-07-30T08:59:55.716Z,27.9
2018-07-30T09:00:53.386Z,27.9
2018-07-30T09:01:58.902Z,27.9
2018-07-30T09:03:01.244Z,27.9
2018-07-30T09:04:05.066Z,27.9
2018-07-30T09:05:17.516Z,27.9
2018-07-30T09:06:32.976Z,27.9
2018-07-30T09:07:39.926Z,27.9
2018-07-30T09:08:42.495Z,27.9
2018-07-30T09:09:37.609Z,27.9
2018-07-30T09:10:47.159Z,27.9
2018-07-30T09:11:47.443Z,27.9
2018-07-30T09:12:49.313Z,27.9
2018-07-30T09:13:54.310Z,27.9
2018-07-30T09:15:00.277Z,27.9
2018-07-30T09:15:57.921Z,27.9
2018-07-30T09:16:58.507Z,27.9
2018-07-30T09:17:52.272Z,27.9
2018-07-30T09:18:59.000Z,27.9
2018-07-30T09:19:57.356Z,27.9
2018-07-30T09:21:21.878Z,27.8
2018-07-30T09:22:17.216Z,27.9
2018-07-30T09:23:22.542Z,27.8
2018-07-30T09:24:20.172Z,27.8
2018-07-30T09:25:18.554Z,27.8
2018-07-30T09:26:22.241Z,27.8
2018-07-30T09:27:22.476Z,27.8
2018-07-30T09:28:28.207Z,27.8
2018-07-30T09:29:25.701Z,27.8
2018-07-30T09:30:31.009Z,27.8
2018-07-30T09:31:33.992Z,27.9
2018-07-30T09:32:32.712Z,27.8
2018-07-30T09:33:38.010Z,27.8
2018-07-30T09:34:36.161Z,27.8
2018-07-30T09:35:31.540Z,27.8
2018-07-30T09:36:31.754Z,27.8
2018-07-30T09:37:41.526Z,27.8
2018-07-30T09:38:38.849Z,27.8
2018-07-30T09:39:36.690Z,27.8
2018-07-30T09:40:35.191Z,27.8
2018-07-30T09:41:34.346Z,27.8
2018-07-30T09:42:34.386Z,27.8
2018-07-30T09:43:31.801Z,27.8
2018-07-30T09:44:33.097Z,27.8
2018-07-30T09:45:28.383Z,27.9
2018-07-30T09:46:26.058Z,27.9
2018-07-30T09:47:23.473Z,27.9
2018-07-30T09:48:21.871Z,27.9
2018-07-30T09:49:29.109Z,27.9
2018-07-30T09:50:32.226Z,27.9
2018-07-30T09:51:31.860Z,27.9
2018-07-30T09:52:30.488Z,27.9
2018-07-30T09:53:44.297Z,27.9
2018-07-30T09:54:49.316Z,28
2018-07-30T09:55:48.114Z,28
2018-07-30T09:56:50.071Z,28
2018-07-30T09:57:45.621Z,28
2018-07-30T09:58:47.335Z,28
2018-07-30T09:59:45.883Z,28
2018-07-30T10:00:43.828Z,28.1
2018-07-30T10:01:40.434Z,28
2018-07-30T10:02:44.716Z,28
2018-07-30T10:03:42.815Z,28.1
2018-07-30T10:04:58.303Z,28.1
2018-07-30T10:05:51.482Z,28.1
2018-07-30T10:06:51.186Z,28
2018-07-30T10:07:52.110Z,28.1
2018-07-30T10:08:51.105Z,28.1
2018-07-30T10:09:48.790Z,28.1
2018-07-30T10:10:46.811Z,28.1
2018-07-30T10:11:51.919Z,28.1
2018-07-30T10:12:47.492Z,28.1
2018-07-30T10:13:50.442Z,28.1
2018-07-30T10:14:51.034Z,28.1
2018-07-30T10:15:47.527Z,28.1
2018-07-30T10:16:46.279Z,28.1
2018-07-30T10:17:47.723Z,28.1
2018-07-30T10:18:44.829Z,28.2
2018-07-30T10:19:57.256Z,28.1
2018-07-30T10:20:56.985Z,28.2
2018-07-30T10:22:02.807Z,28.1
2018-07-30T10:23:03.400Z,28.2
2018-07-30T10:24:04.899Z,28.2
2018-07-30T10:25:00.814Z,28.2
2018-07-30T10:26:01.576Z,28.2
2018-07-30T10:27:00.156Z,28.2
2018-07-30T10:27:55.409Z,28.2
2018-07-30T10:28:56.600Z,28.2
2018-07-30T10:30:02.078Z,28.2
2018-07-30T10:31:13.948Z,28.2
2018-07-30T10:32:07.538Z,28.2
2018-07-30T10:33:08.858Z,28.2
2018-07-30T10:34:04.361Z,28.2
2018-07-30T10:35:05.598Z,28.2
2018-07-30T10:36:04.445Z,28.2
2018-07-30T10:37:03.502Z,28.3
2018-07-30T10:38:00.164Z,28.3
2018-07-30T10:39:12.523Z,28.3
2018-07-30T10:40:10.215Z,28.3
2018-07-30T10:41:13.114Z,28.3
2018-07-30T10:42:16.350Z,28.3
2018-07-30T10:43:13.315Z,28.3
2018-07-30T10:44:12.178Z,28.4
2018-07-30T10:45:24.568Z,28.4
2018-07-30T10:46:18.716Z,28.4
2018-07-30T10:47:28.796Z,28.4
2018-07-30T10:48:23.686Z,28.4
2018-07-30T10:49:29.760Z,28.4
2018-07-30T10:50:29.941Z,28.4
2018-07-30T10:51:31.785Z,28.4
2018-07-30T10:52:29.768Z,28.4
2018-07-30T10:53:29.516Z,28.4
2018-07-30T10:54:31.787Z,28.4
2018-07-30T10:55:27.082Z,28.4
2018-07-30T10:56:40.876Z,28.4
2018-07-30T10:57:35.705Z,28.4
2018-07-30T10:58:41.305Z,28.4
2018-07-30T10:59:42.562Z,28.5
2018-07-30T11:00:43.685Z,28.5
2018-07-30T11:01:47.430Z,28.4
2018-07-30T11:02:43.146Z,28.5
2018-07-30T11:03:48.108Z,28.5
2018-07-30T11:04:48.676Z,28.5
2018-07-30T11:05:47.465Z,28.5
2018-07-30T11:06:45.496Z,28.5
2018-07-30T11:07:57.593Z,28.5
2018-07-30T11:08:52.790Z,28.5
2018-07-30T11:09:58.447Z,28.6
2018-07-30T11:11:03.627Z,28.6
2018-07-30T11:12:01.393Z,28.6
2018-07-30T11:13:02.116Z,28.6
2018-07-30T11:14:02.227Z,28.6
2018-07-30T11:15:01.233Z,28.6
2018-07-30T11:16:00.898Z,28.6
2018-07-30T11:16:56.721Z,28.6
2018-07-30T11:17:58.306Z,28.7
2018-07-30T11:18:58.705Z,28.7
2018-07-30T11:19:58.210Z,28.6
2018-07-30T11:21:09.880Z,28.7
2018-07-30T11:22:09.558Z,28.7
2018-07-30T11:23:13.983Z,28.7
2018-07-30T11:24:09.055Z,28.7
2018-07-30T11:25:09.796Z,28.7
2018-07-30T11:26:05.651Z,28.7
2018-07-30T11:27:06.318Z,28.7
2018-07-30T11:28:05.101Z,28.7
2018-07-30T11:29:06.823Z,28.7
2018-07-30T11:30:02.509Z,28.7
2018-07-30T11:31:14.944Z,28.7
2018-07-30T11:32:10.036Z,28.7
2018-07-30T11:33:05.467Z,28.7
2018-07-30T11:34:04.986Z,28.7
2018-07-30T11:35:07.794Z,28.7
2018-07-30T11:36:06.334Z,28.7
2018-07-30T11:37:06.256Z,28.7
2018-07-30T11:38:12.529Z,28.7
2018-07-30T11:39:08.674Z,28.7
2018-07-30T11:40:07.804Z,28.7
2018-07-30T11:41:08.152Z,28.7
2018-07-30T11:42:33.632Z,28.8
2018-07-30T11:43:28.003Z,28.8
2018-07-30T11:44:30.850Z,28.8
2018-07-30T11:45:26.894Z,28.8
2018-07-30T11:46:27.339Z,28.8
2018-07-30T11:47:21.808Z,28.8
2018-07-30T11:48:22.608Z,28.8
2018-07-30T11:49:20.510Z,28.9
2018-07-30T11:50:24.113Z,28.8
2018-07-30T11:51:23.565Z,28.9
2018-07-30T11:52:23.162Z,28.8
2018-07-30T11:53:18.252Z,28.8
2018-07-30T11:54:19.777Z,28.9
2018-07-30T11:55:19.810Z,28.9
2018-07-30T11:56:22.238Z,28.9
2018-07-30T11:57:40.880Z,28.9
2018-07-30T11:58:35.673Z,28.8
2018-07-30T11:59:40.724Z,28.8
2018-07-30T12:00:37.102Z,28.9
2018-07-30T12:01:37.549Z,28.9
2018-07-30T12:02:36.090Z,28.9
2018-07-30T12:03:37.970Z,28.9
2018-07-30T12:04:33.738Z,28.9
2018-07-30T12:05:34.108Z,28.9
2018-07-30T12:06:44.610Z,28.9
2018-07-30T12:07:45.248Z,28.9
2018-07-30T12:08:40.609Z,28.9
2018-07-30T12:09:38.788Z,28.9
2018-07-30T12:10:37.383Z,29
2018-07-30T12:11:51.352Z,29
2018-07-30T12:12:46.594Z,29
2018-07-30T12:13:48.511Z,29
2018-07-30T12:14:46.430Z,29
2018-07-30T12:15:51.760Z,29
2018-07-30T12:16:48.121Z,29
2018-07-30T12:17:50.917Z,29
2018-07-30T12:18:50.334Z,29
2018-07-30T12:19:45.815Z,29
2018-07-30T12:20:47.257Z,29.1
2018-07-30T12:21:50.280Z,29.1
2018-07-30T12:22:47.029Z,29.1
2018-07-30T12:23:59.985Z,29.1
2018-07-30T12:24:56.063Z,29.1
2018-07-30T12:25:51.292Z,29.1
2018-07-30T12:26:55.953Z,29.1
2018-07-30T12:27:56.047Z,29.1
2018-07-30T12:28:56.253Z,29.1
2018-07-30T12:30:01.438Z,29.1
2018-07-30T12:31:06.007Z,29.1
2018-07-30T12:32:03.855Z,29.1
2018-07-30T12:33:02.771Z,29.2
2018-07-30T12:34:03.729Z,29.2
2018-07-30T12:34:59.577Z,29.2
2018-07-30T12:36:13.293Z,29.2
2018-07-30T12:37:04.795Z,29.2
2018-07-30T12:38:06.059Z,29.2
2018-07-30T12:39:06.644Z,29.2
2018-07-30T12:40:05.860Z,29.2
2018-07-30T12:41:09.802Z,29.2
2018-07-30T12:42:07.672Z,29.2
2018-07-30T12:43:10.064Z,29.2
2018-07-30T12:44:18.121Z,29.2
2018-07-30T12:45:27.814Z,29.2
2018-07-30T12:46:30.073Z,29.2
2018-07-30T12:47:28.207Z,29.2
2018-07-30T12:48:26.706Z,29.2
2018-07-30T12:49:30.492Z,29.2
2018-07-30T12:50:29.052Z,29.2
2018-07-30T12:51:25.128Z,29.2
2018-07-30T12:52:24.849Z,29.2
2018-07-30T12:53:39.409Z,29.2
2018-07-30T12:54:39.128Z,29.2
2018-07-30T12:55:35.367Z,29.2
2018-07-30T12:56:37.648Z,29.2
2018-07-30T12:57:37.544Z,29.2
2018-07-30T12:58:37.436Z,29.2
2018-07-30T12:59:35.293Z,29.3
2018-07-30T13:00:33.551Z,29.3
2018-07-30T13:01:31.291Z,29.2
2018-07-30T13:02:30.013Z,29.2
2018-07-30T13:03:26.526Z,29.3
2018-07-30T13:04:26.909Z,29.3
2018-07-30T13:05:38.867Z,29.3
2018-07-30T13:06:31.133Z,29.3
2018-07-30T13:07:35.611Z,29.3
2018-07-30T13:08:33.874Z,29.3
2018-07-30T13:09:34.732Z,29.3
2018-07-30T13:10:37.732Z,29.3
2018-07-30T13:11:35.414Z,29.3
2018-07-30T13:12:33.454Z,29.3
2018-07-30T13:13:28.458Z,29.3
2018-07-30T13:14:33.294Z,29.3
2018-07-30T13:15:40.525Z,29.3
2018-07-30T13:16:36.612Z,29.3
2018-07-30T13:17:34.885Z,29.3
2018-07-30T13:18:48.660Z,29.3
2018-07-30T13:19:40.257Z,29.3
2018-07-30T13:20:44.106Z,29.3
2018-07-30T13:21:41.763Z,29.4
2018-07-30T13:22:53.291Z,29.3
2018-07-30T13:23:49.553Z,29.4
2018-07-30T13:24:51.293Z,29.4
2018-07-30T13:25:51.796Z,29.4
2018-07-30T13:26:54.768Z,29.4
2018-07-30T13:27:54.969Z,29.3
2018-07-30T13:28:56.585Z,29.4
2018-07-30T13:30:09.720Z,29.3
2018-07-30T13:31:09.328Z,29.3
2018-07-30T13:32:23.497Z,29.3
2018-07-30T13:33:21.888Z,29.3
2018-07-30T13:34:17.506Z,29.3
2018-07-30T13:35:22.916Z,29.3
2018-07-30T13:36:25.522Z,29.3
2018-07-30T13:37:27.096Z,29.3
2018-07-30T13:38:26.818Z,29.4
2018-07-30T13:39:25.504Z,29.3
2018-07-30T13:40:41.726Z,29.4